createdAt,value
2017-06-13T00:03:52.598Z,1010.93
2017-06-13T00:08:48.203Z,1010.87
2017-06-13T00:13:44.433Z,1010.91
2017-06-13T00:18:40.172Z,1010.89
2017-06-13T00:23:36.018Z,1010.92
2017-06-13T00:28:31.687Z,1010.85
2017-06-13T00:33:27.614Z,1010.87
2017-06-13T00:38:23.521Z,1010.86
2017-06-13T00:43:20.409Z,1010.84
2017-06-13T00:48:15.861Z,1010.87
2017-06-13T00:53:12.106Z,1010.85
2017-06-13T00:58:07.731Z,1010.78
2017-06-13T01:03:04.750Z,1010.81
2017-06-13T01:08:00.818Z,1010.81
2017-06-13T01:12:57.671Z,1010.82
2017-06-13T01:17:53.402Z,1010.87
2017-06-13T01:22:49.234Z,1010.83
2017-06-13T01:27:45.052Z,1010.77
2017-06-13T01:32:41.032Z,1010.73
2017-06-13T01:37:37.000Z,1010.77
2017-06-13T01:42:33.394Z,1010.88
2017-06-13T01:47:29.158Z,1010.86
2017-06-13T01:52:25.600Z,1010.85
2017-06-13T01:57:22.225Z,1010.80
2017-06-13T02:02:18.066Z,1010.85
2017-06-13T02:07:15.183Z,1010.87
2017-06-13T02:12:10.494Z,1010.87
2017-06-13T02:17:06.416Z,1010.93
2017-06-13T02:22:02.363Z,1010.95
2017-06-13T02:26:59.310Z,1010.92
2017-06-13T02:31:55.835Z,1010.84
2017-06-13T02:36:52.430Z,1010.86
2017-06-13T02:41:48.065Z,1010.83
2017-06-13T02:46:43.706Z,1010.76
2017-06-13T02:51:39.478Z,1010.85
2017-06-13T02:56:35.305Z,1010.87
2017-06-13T03:01:30.930Z,1010.82
2017-06-13T03:06:26.841Z,1010.79
2017-06-13T03:11:22.779Z,1010.82
2017-06-13T03:16:18.476Z,1010.80
2017-06-13T03:21:14.586Z,1010.87
2017-06-13T03:26:11.447Z,1010.86
2017-06-13T03:31:06.780Z,1010.78
2017-06-13T03:36:02.758Z,1010.93
2017-06-13T03:40:58.772Z,1010.93
2017-06-13T03:45:54.698Z,1010.97
2017-06-13T03:50:50.785Z,1010.94
2017-06-13T03:55:47.727Z,1011.03
2017-06-13T04:00:43.747Z,1011.05
2017-06-13T04:05:40.010Z,1011.11
2017-06-13T04:10:37.845Z,1011.15
2017-06-13T04:15:33.624Z,1011.21
2017-06-13T04:20:29.715Z,1011.33
2017-06-13T04:25:25.650Z,1011.40
2017-06-13T04:30:21.481Z,1011.30
2017-06-13T04:35:17.612Z,1011.36
2017-06-13T04:40:14.057Z,1011.33
2017-06-13T04:45:10.236Z,1011.28
2017-06-13T04:50:07.794Z,1011.35
2017-06-13T04:55:05.356Z,1011.30
2017-06-13T05:00:01.687Z,1011.46
2017-06-13T05:04:59.100Z,1011.39
2017-06-13T05:09:56.201Z,1011.47
2017-06-13T05:14:53.534Z,1011.43
2017-06-13T05:19:50.663Z,1011.53
2017-06-13T05:24:46.686Z,1011.50
2017-06-13T05:29:43.029Z,1011.64
2017-06-13T05:34:39.316Z,1011.66
2017-06-13T05:39:35.604Z,1011.60
2017-06-13T05:44:32.844Z,1011.65
2017-06-13T05:49:28.600Z,1011.68
2017-06-13T05:54:24.538Z,1011.57
2017-06-13T05:59:20.722Z,1011.56
2017-06-13T06:04:17.012Z,1011.54
2017-06-13T06:09:13.170Z,1011.55
2017-06-13T06:14:08.245Z,1011.62
2017-06-13T06:19:04.621Z,1011.52
2017-06-13T06:23:59.748Z,1011.59
2017-06-13T06:28:55.441Z,1011.70
2017-06-13T06:33:51.155Z,1011.79
2017-06-13T06:38:48.308Z,1011.67
2017-06-13T06:43:44.539Z,1011.76
2017-06-13T06:48:40.835Z,1011.83
2017-06-13T06:53:37.057Z,1011.89
2017-06-13T06:58:32.944Z,1011.90
2017-06-13T07:03:29.051Z,1012.04
2017-06-13T07:08:25.313Z,1012.00
2017-06-13T07:13:21.320Z,1011.93
2017-06-13T07:18:17.291Z,1012.00
2017-06-13T07:23:13.940Z,1011.96
2017-06-13T07:28:10.935Z,1012.01
2017-06-13T07:33:06.624Z,1012.06
2017-06-13T07:38:02.618Z,1011.99
2017-06-13T07:42:58.322Z,1011.93
2017-06-13T07:47:54.335Z,1011.93
2017-06-13T07:52:49.993Z,1012.12
2017-06-13T07:57:45.760Z,1012.04
2017-06-13T08:02:41.992Z,1012.01
2017-06-13T08:07:38.459Z,1011.89
2017-06-13T08:12:33.870Z,1012.11
2017-06-13T08:17:29.616Z,1012.24
2017-06-13T08:22:25.864Z,1012.29
2017-06-13T08:27:23.000Z,1012.29
2017-06-13T08:32:20.732Z,1012.35
2017-06-13T08:37:20.526Z,1012.13
2017-06-13T08:42:18.462Z,1012.04
2017-06-13T08:47:12.242Z,1012.22
2017-06-13T08:52:07.637Z,1012.25
2017-06-13T08:57:02.648Z,1012.23
2017-06-13T09:01:58.296Z,1012.16
2017-06-13T09:06:54.374Z,1012.22
2017-06-13T09:11:49.912Z,1012.24
2017-06-13T09:16:45.694Z,1012.16
2017-06-13T09:21:41.646Z,1012.20
2017-06-13T09:26:37.526Z,1012.27
2017-06-13T09:31:33.677Z,1012.27
2017-06-13T09:36:29.706Z,1012.32
2017-06-13T09:41:27.040Z,1012.34
2017-06-13T09:46:25.628Z,1012.35
2017-06-13T09:51:21.513Z,1012.34
2017-06-13T09:56:19.010Z,1012.35
2017-06-13T10:01:15.283Z,1012.18
2017-06-13T10:06:11.080Z,1012.25
2017-06-13T10:11:08.093Z,1012.32
2017-06-13T10:16:03.269Z,1012.26
2017-06-13T10:20:58.646Z,1012.33
2017-06-13T10:25:55.999Z,1012.64
2017-06-13T10:30:54.517Z,1012.30
2017-06-13T10:35:49.287Z,1012.30
2017-06-13T10:40:44.065Z,1012.30
2017-06-13T10:45:39.030Z,1012.35
2017-06-13T10:50:35.550Z,1012.28
2017-06-13T10:55:31.316Z,1012.36
2017-06-13T11:00:28.166Z,1012.34
2017-06-13T11:05:27.112Z,1012.36
2017-06-13T11:10:21.859Z,1012.39
2017-06-13T11:15:16.986Z,1012.51
2017-06-13T11:20:12.383Z,1012.56
2017-06-13T11:25:08.755Z,1012.58
2017-06-13T11:30:04.934Z,1012.57
2017-06-13T11:35:00.880Z,1012.61
2017-06-13T11:39:56.705Z,1012.62
2017-06-13T11:44:53.803Z,1012.64
2017-06-13T11:49:50.658Z,1012.64
2017-06-13T11:54:47.235Z,1012.64
2017-06-13T11:59:43.031Z,1012.65
2017-06-13T12:04:39.326Z,1012.52
2017-06-13T12:09:35.669Z,1012.46
2017-06-13T12:14:33.606Z,1012.63
2017-06-13T12:19:29.813Z,1012.58
2017-06-13T12:24:25.451Z,1012.53
2017-06-13T12:29:22.277Z,1012.46
2017-06-13T12:34:17.426Z,1012.44
2017-06-13T12:39:12.911Z,1012.53
2017-06-13T12:44:09.306Z,1012.52
2017-06-13T12:49:05.510Z,1012.50
2017-06-13T12:54:00.709Z,1012.52
2017-06-13T12:58:56.571Z,1012.61
2017-06-13T13:03:53.419Z,1012.58
2017-06-13T13:08:49.158Z,1012.65
2017-06-13T13:13:44.812Z,1012.55
2017-06-13T13:18:40.563Z,1012.59
2017-06-13T13:23:36.038Z,1012.66
2017-06-13T13:28:33.159Z,1012.72
2017-06-13T13:33:29.041Z,1012.60
2017-06-13T13:38:26.240Z,1012.64
2017-06-13T13:43:22.064Z,1012.75
2017-06-13T13:48:17.734Z,1012.68
2017-06-13T13:53:13.549Z,1012.69
2017-06-13T13:58:09.230Z,1012.73
2017-06-13T14:03:04.997Z,1012.86
2017-06-13T14:08:00.563Z,1012.95
2017-06-13T14:12:56.241Z,1012.96
2017-06-13T14:17:52.128Z,1012.95
2017-06-13T14:22:47.986Z,1012.97
2017-06-13T14:27:43.689Z,1013.01
2017-06-13T14:32:39.425Z,1012.95
2017-06-13T14:37:35.397Z,1013.03
2017-06-13T14:42:31.367Z,1012.96
2017-06-13T14:47:28.595Z,1013.02
2017-06-13T14:52:24.660Z,1012.90
2017-06-13T14:57:20.778Z,1012.96
2017-06-13T15:02:17.876Z,1012.90
2017-06-13T15:07:13.758Z,1012.87
2017-06-13T15:12:09.754Z,1012.89
2017-06-13T15:17:05.639Z,1012.96
2017-06-13T15:22:02.716Z,1012.93
2017-06-13T15:26:58.122Z,1012.95
2017-06-13T15:31:54.113Z,1012.99
2017-06-13T15:36:50.329Z,1013.04
2017-06-13T15:41:47.784Z,1013.00
2017-06-13T15:46:43.702Z,1013.08
2017-06-13T15:51:40.740Z,1013.11
2017-06-13T15:56:37.111Z,1013.07
2017-06-13T16:01:33.125Z,1013.01
2017-06-13T16:06:30.072Z,1012.99
2017-06-13T16:11:25.474Z,1013.05
2017-06-13T16:16:21.626Z,1013.06
2017-06-13T16:21:17.464Z,1012.93
2017-06-13T16:26:13.278Z,1013.01
2017-06-13T16:31:09.976Z,1012.91
2017-06-13T16:36:05.776Z,1012.99
2017-06-13T16:41:01.678Z,1012.84
2017-06-13T16:45:58.235Z,1012.91
2017-06-13T16:50:54.096Z,1012.93
2017-06-13T16:55:49.907Z,1012.81
2017-06-13T17:00:45.762Z,1012.77
2017-06-13T17:05:41.473Z,1012.75
2017-06-13T17:10:37.448Z,1012.77
2017-06-13T17:15:34.127Z,1012.84
2017-06-13T17:20:31.160Z,1012.76
2017-06-13T17:25:27.261Z,1012.75
2017-06-13T17:30:23.703Z,1012.73
2017-06-13T17:35:19.745Z,1012.73
2017-06-13T17:40:16.815Z,1012.81
2017-06-13T17:45:13.350Z,1012.75
2017-06-13T17:50:08.974Z,1012.77
2017-06-13T17:55:04.730Z,1012.76
2017-06-13T18:00:00.357Z,1012.72
2017-06-13T18:04:56.214Z,1012.68
2017-06-13T18:09:51.988Z,1012.70
2017-06-13T18:14:48.897Z,1012.64
2017-06-13T18:19:44.564Z,1012.65
2017-06-13T18:24:40.322Z,1012.59
2017-06-13T18:29:36.974Z,1012.56
2017-06-13T18:34:33.109Z,1012.55
2017-06-13T18:39:29.128Z,1012.54
2017-06-13T18:44:25.723Z,1012.63
2017-06-13T18:49:21.225Z,1012.58
2017-06-13T18:54:17.037Z,1012.67
2017-06-13T18:59:12.947Z,1012.68
2017-06-13T19:04:08.597Z,1012.76
2017-06-13T19:09:05.366Z,1012.81
2017-06-13T19:14:00.725Z,1012.88
2017-06-13T19:18:56.668Z,1012.93
2017-06-13T19:23:53.381Z,1012.89
2017-06-13T19:28:49.885Z,1013.06
2017-06-13T19:33:45.684Z,1012.92
2017-06-13T19:38:41.821Z,1013.03
2017-06-13T19:43:38.759Z,1013.11
2017-06-13T19:48:36.420Z,1013.10
2017-06-13T19:53:32.794Z,1013.05
2017-06-13T19:58:28.959Z,1013.08
2017-06-13T20:03:24.832Z,1013.08
2017-06-13T20:08:20.599Z,1013.19
2017-06-13T20:13:16.416Z,1013.09
2017-06-13T20:18:12.931Z,1013.14
2017-06-13T20:23:08.854Z,1013.13
2017-06-13T20:28:04.686Z,1013.12
2017-06-13T20:33:00.490Z,1013.15
2017-06-13T20:37:56.344Z,1013.12
2017-06-13T20:42:51.867Z,1013.29
2017-06-13T20:47:47.909Z,1013.15
2017-06-13T20:52:43.968Z,1013.07
2017-06-13T20:57:39.744Z,1013.16
2017-06-13T21:02:35.930Z,1013.17
2017-06-13T21:07:31.781Z,1013.10
2017-06-13T21:12:27.553Z,1013.24
2017-06-13T21:17:23.256Z,1013.34
2017-06-13T21:22:18.915Z,1013.44
2017-06-13T21:27:14.558Z,1013.43
2017-06-13T21:32:10.970Z,1013.52
2017-06-13T21:37:06.621Z,1013.45
2017-06-13T21:42:02.627Z,1013.53
2017-06-13T21:47:00.157Z,1013.63
2017-06-13T21:51:55.734Z,1013.60
2017-06-13T21:56:51.552Z,1013.54
2017-06-13T22:01:49.482Z,1013.59
2017-06-13T22:06:44.634Z,1013.51
2017-06-13T22:11:40.926Z,1013.33
2017-06-13T22:16:36.691Z,1013.31
2017-06-13T22:21:32.426Z,1013.40
2017-06-13T22:26:28.485Z,1013.34
2017-06-13T22:31:24.202Z,1013.37
2017-06-13T22:36:20.253Z,1013.47
2017-06-13T22:41:15.919Z,1013.40
2017-06-13T22:46:12.491Z,1013.47
2017-06-13T22:51:08.368Z,1013.51
2017-06-13T22:56:03.948Z,1013.57
2017-06-13T23:01:00.050Z,1013.73
2017-06-13T23:05:55.684Z,1013.66
2017-06-13T23:10:51.674Z,1013.69
2017-06-13T23:15:47.516Z,1013.67
2017-06-13T23:20:44.419Z,1013.79
2017-06-13T23:25:39.709Z,1013.91
2017-06-13T23:30:35.725Z,1013.95
2017-06-13T23:35:31.486Z,1013.95
2017-06-13T23:40:27.166Z,1013.94
2017-06-13T23:45:23.242Z,1013.98
2017-06-13T23:50:18.926Z,1013.89
2017-06-13T23:55:14.679Z,1013.91
